Time;durP1;ratioP1;P1;durP2;ratioP2;P2;SDS_P1;SDS_P2;PMS_P1;PMS_P2;Temp;Humidity;BMP_temperature;BMP_pressure;BME280_temperature;BME280_humidity;BME280_pressure;Samples;Min_cycle;Max_cycle;Signal;HPM_P1;HPM_P2
2023/01/19 00:00:09;;;;;;;14.37;10.73;;;-1.70;99.90;;;;;;5023739;28;20782;-71
2023/01/19 00:02:35;;;;;;;12.90;11.00;;;-1.60;99.90;;;;;;5018510;28;20238;-71
2023/01/19 00:05:02;;;;;;;13.37;10.53;;;-1.70;99.90;;;;;;5013314;28;20464;-71
2023/01/19 00:07:31;;;;;;;12.20;9.90;;;-1.60;99.90;;;;;;5021612;28;20465;-70
2023/01/19 00:09:58;;;;;;;16.17;11.93;;;-1.70;99.90;;;;;;5015740;28;20975;-70
2023/01/19 00:12:24;;;;;;;13.23;10.87;;;-1.70;99.90;;;;;;5020486;28;20512;-70
2023/01/19 00:14:49;;;;;;;15.47;12.20;;;-1.60;99.90;;;;;;5014715;28;20520;-70
2023/01/19 00:17:15;;;;;;;17.70;11.47;;;-1.70;99.90;;;;;;5019202;28;20548;-70
2023/01/19 00:19:40;;;;;;;13.40;10.60;;;-1.70;99.90;;;;;;5018362;28;20796;-70
2023/01/19 00:22:06;;;;;;;16.83;11.33;;;-1.80;99.90;;;;;;5024070;28;20178;-71
2023/01/19 00:24:32;;;;;;;16.80;10.53;;;-1.80;99.90;;;;;;5019649;28;20182;-71
2023/01/19 00:26:58;;;;;;;17.03;11.80;;;-1.80;99.90;;;;;;5020542;28;20258;-70
2023/01/19 00:29:23;;;;;;;18.83;11.00;;;-1.70;99.90;;;;;;5015227;28;20434;-71
2023/01/19 00:31:49;;;;;;;17.10;12.40;;;-1.80;99.90;;;;;;5023957;28;20182;-70
2023/01/19 00:34:15;;;;;;;14.27;11.67;;;-1.80;99.90;;;;;;5022616;28;20185;-70
2023/01/19 00:36:41;;;;;;;14.50;12.00;;;-1.80;99.90;;;;;;5018198;28;20971;-70
2023/01/19 00:39:07;;;;;;;13.20;10.53;;;-1.80;99.90;;;;;;5012379;28;20203;-71
2023/01/19 00:44:17;;;;;;;12.63;10.70;;;-1.90;99.90;;;;;;5019553;28;20495;-70
2023/01/19 00:46:43;;;;;;;17.10;11.70;;;-1.80;99.90;;;;;;5020597;28;21072;-71
2023/01/19 00:49:08;;;;;;;17.77;11.57;;;-1.90;99.90;;;;;;5012323;28;20194;-70
2023/01/19 00:51:34;;;;;;;14.10;11.47;;;-1.90;99.90;;;;;;5014264;28;20640;-71
2023/01/19 00:54:03;;;;;;;13.27;10.70;;;-1.90;99.90;;;;;;5011824;28;20297;-70
2023/01/19 00:56:30;;;;;;;14.57;10.50;;;-1.90;99.90;;;;;;5010552;28;20305;-71
2023/01/19 00:58:55;;;;;;;14.97;11.00;;;-2.00;99.90;;;;;;5007637;28;20463;-70
2023/01/19 01:01:21;;;;;;;15.33;12.90;;;-2.00;99.90;;;;;;5010047;28;20429;-70
2023/01/19 01:03:47;;;;;;;15.80;11.57;;;-1.90;99.90;;;;;;5010950;28;20183;-71
2023/01/19 01:06:12;;;;;;;18.30;11.40;;;-2.00;99.90;;;;;;5011471;28;20179;-70
2023/01/19 01:08:38;;;;;;;17.60;10.97;;;-2.00;99.90;;;;;;5008605;28;20203;-70
2023/01/19 01:11:03;;;;;;;20.70;11.27;;;-2.00;99.90;;;;;;5009519;28;20183;-70
2023/01/19 01:13:29;;;;;;;19.07;12.07;;;-2.00;99.90;;;;;;5008358;28;20556;-70
2023/01/19 01:15:55;;;;;;;17.70;10.47;;;-2.00;99.90;;;;;;5010570;28;20179;-70
2023/01/19 01:18:21;;;;;;;17.13;12.00;;;-2.10;99.90;;;;;;5008227;28;20210;-71
2023/01/19 01:20:47;;;;;;;16.73;10.43;;;-2.00;99.90;;;;;;5010396;28;20443;-70
2023/01/19 01:23:13;;;;;;;13.23;11.50;;;-2.00;99.90;;;;;;5009037;28;20195;-70
2023/01/19 01:25:38;;;;;;;15.43;10.67;;;-2.10;99.90;;;;;;5012326;28;20187;-71
2023/01/19 01:28:07;;;;;;;14.90;10.83;;;-2.00;99.90;;;;;;5010556;28;20217;-70
2023/01/19 01:30:39;;;;;;;16.83;11.87;;;-2.00;99.90;;;;;;5010343;28;20384;-71
2023/01/19 01:33:10;;;;;;;14.97;11.13;;;-2.10;99.90;;;;;;5009363;28;20832;-70
2023/01/19 01:35:35;;;;;;;15.23;12.20;;;-2.00;99.90;;;;;;5006838;28;20496;-70
2023/01/19 01:38:01;;;;;;;11.97;9.90;;;-2.00;99.90;;;;;;5009039;28;20481;-70
2023/01/19 01:40:27;;;;;;;16.83;10.17;;;-2.10;99.90;;;;;;5010862;28;20245;-71
2023/01/19 01:42:53;;;;;;;15.07;11.43;;;-2.00;99.90;;;;;;5008878;28;20235;-71
2023/01/19 01:45:24;;;;;;;12.37;10.53;;;-2.10;99.90;;;;;;5010343;28;20457;-70
2023/01/19 01:47:51;;;;;;;13.77;10.50;;;-2.10;99.90;;;;;;5008729;28;20199;-70
2023/01/19 01:50:21;;;;;;;11.67;10.00;;;-2.10;99.90;;;;;;5009005;28;20934;-71
2023/01/19 01:53:10;;;;;;;15.53;10.73;;;-2.10;99.90;;;;;;5007663;28;20469;-70
2023/01/19 01:55:45;;;;;;;11.77;9.57;;;-2.10;99.90;;;;;;5005593;28;20523;-70
2023/01/19 01:58:11;;;;;;;13.00;10.80;;;-2.10;99.90;;;;;;5005280;28;20992;-70
2023/01/19 02:03:24;;;;;;;14.43;10.77;;;-2.20;99.90;;;;;;5007858;28;20436;-71
2023/01/19 02:05:52;;;;;;;11.67;10.47;;;-2.20;99.90;;;;;;5009206;28;20957;-70
2023/01/19 02:14:08;;;;;;;15.23;9.90;;;-2.30;99.90;;;;;;5007559;28;20441;-70
2023/01/19 02:16:36;;;;;;;13.93;9.87;;;-2.30;99.90;;;;;;5008069;28;20430;-70
2023/01/19 02:19:02;;;;;;;11.70;10.47;;;-2.30;99.90;;;;;;5006672;28;20853;-70
2023/01/19 02:21:41;;;;;;;12.23;9.80;;;-2.20;99.90;;;;;;5009338;28;20474;-70
2023/01/19 02:24:07;;;;;;;13.57;9.53;;;-2.30;99.90;;;;;;5012183;28;20433;-71
2023/01/19 02:26:37;;;;;;;12.67;9.50;;;-2.30;99.90;;;;;;5012017;28;20456;-70
2023/01/19 02:29:09;;;;;;;12.73;9.50;;;-2.30;99.90;;;;;;5012946;28;20245;-70
2023/01/19 02:31:36;;;;;;;18.13;9.80;;;-2.30;99.90;;;;;;5005692;28;20466;-70
2023/01/19 02:34:04;;;;;;;13.40;9.70;;;-2.30;99.90;;;;;;5011791;28;20466;-70
2023/01/19 02:36:38;;;;;;;13.37;9.30;;;-2.30;99.90;;;;;;5013988;28;20531;-70
2023/01/19 02:39:05;;;;;;;11.93;9.40;;;-2.40;99.90;;;;;;5008610;28;20449;-69
2023/01/19 02:41:37;;;;;;;12.07;10.00;;;-2.40;99.90;;;;;;5011817;28;20512;-69
2023/01/19 02:44:05;;;;;;;14.07;10.17;;;-2.30;99.90;;;;;;4995263;28;21026;-70
2023/01/19 02:46:31;;;;;;;13.30;9.57;;;-2.30;99.90;;;;;;5011977;28;20477;-70
2023/01/19 02:49:00;;;;;;;15.73;10.20;;;-2.30;99.90;;;;;;5012611;28;20460;-69
2023/01/19 02:51:27;;;;;;;12.97;10.10;;;-2.30;99.90;;;;;;5011386;28;20503;-69
2023/01/19 02:54:35;;;;;;;13.13;10.30;;;-2.30;99.90;;;;;;5011178;28;20504;-70
2023/01/19 02:57:09;;;;;;;14.93;10.73;;;-2.30;99.90;;;;;;5008543;28;20479;-70
2023/01/19 03:00:03;;;;;;;13.53;10.07;;;-2.30;99.90;;;;;;5010471;28;20429;-69
2023/01/19 03:02:42;;;;;;;12.43;9.53;;;-2.30;99.90;;;;;;5012580;28;20569;-70
2023/01/19 03:05:27;;;;;;;12.10;9.33;;;-2.30;99.90;;;;;;5018802;28;20931;-69
2023/01/19 03:08:40;;;;;;;12.20;9.77;;;-2.30;99.90;;;;;;5006565;28;20492;-69
2023/01/19 03:11:09;;;;;;;12.33;9.63;;;-2.30;99.90;;;;;;4974902;28;20449;-68
2023/01/19 03:13:40;;;;;;;13.73;10.80;;;-2.30;99.90;;;;;;5011002;28;20481;-69
2023/01/19 03:16:24;;;;;;;13.90;9.10;;;-2.30;99.90;;;;;;5012226;28;20448;-69
2023/01/19 03:19:08;;;;;;;13.20;10.77;;;-2.30;99.90;;;;;;5011908;28;20520;-69
2023/01/19 03:21:36;;;;;;;12.70;9.20;;;-2.30;99.90;;;;;;5012638;28;20441;-69
2023/01/19 03:24:05;;;;;;;11.00;9.20;;;-2.40;99.90;;;;;;5009471;28;20446;-69
2023/01/19 03:26:37;;;;;;;11.63;8.33;;;-2.40;99.90;;;;;;5010809;28;20467;-70
2023/01/19 03:29:05;;;;;;;11.97;8.50;;;-2.40;99.90;;;;;;5007246;28;20483;-69
2023/01/19 03:31:32;;;;;;;12.93;9.10;;;-2.40;99.90;;;;;;5010971;28;20441;-69
2023/01/19 03:34:06;;;;;;;11.27;8.87;;;-2.40;99.90;;;;;;5010287;28;20481;-69
2023/01/19 03:36:37;;;;;;;13.37;9.40;;;-2.40;99.90;;;;;;5009538;28;20525;-69
2023/01/19 03:39:05;;;;;;;14.87;9.77;;;-2.50;99.90;;;;;;5011017;28;20445;-69
2023/01/19 03:41:33;;;;;;;10.37;9.10;;;-2.50;99.90;;;;;;5013144;28;20430;-70
2023/01/19 03:44:00;;;;;;;14.07;9.53;;;-2.50;99.90;;;;;;5014417;28;20430;-69
2023/01/19 03:46:26;;;;;;;12.07;9.93;;;-2.50;99.90;;;;;;5011882;28;20469;-70
2023/01/19 03:48:52;;;;;;;9.50;7.63;;;-2.50;99.90;;;;;;5010589;28;20524;-70
2023/01/19 03:51:18;;;;;;;10.53;8.87;;;-2.50;99.90;;;;;;5013721;28;20453;-70
2023/01/19 03:53:45;;;;;;;12.00;8.27;;;-2.50;99.90;;;;;;5019899;28;20521;-70
2023/01/19 03:56:22;;;;;;;13.70;9.10;;;-2.50;99.90;;;;;;5013513;28;20434;-69
2023/01/19 03:58:48;;;;;;;13.77;9.40;;;-2.50;99.90;;;;;;4990856;28;20834;-69
2023/01/19 04:01:15;;;;;;;12.40;8.50;;;-2.50;99.90;;;;;;5011349;28;20441;-69
2023/01/19 04:03:41;;;;;;;11.10;8.40;;;-2.50;99.90;;;;;;5012292;28;20524;-69
2023/01/19 04:06:08;;;;;;;13.27;8.80;;;-2.50;99.90;;;;;;5016732;28;20535;-69
2023/01/19 04:08:34;;;;;;;11.17;8.67;;;-2.50;99.90;;;;;;5008771;28;20892;-70
2023/01/19 04:10:59;;;;;;;12.60;9.00;;;-2.50;99.90;;;;;;5012245;28;20438;-69
2023/01/19 04:13:27;;;;;;;13.30;8.37;;;-2.50;99.90;;;;;;5010364;28;20277;-69
2023/01/19 04:15:53;;;;;;;14.00;9.60;;;-2.50;99.90;;;;;;5011555;28;20183;-70
2023/01/19 04:18:18;;;;;;;11.33;8.63;;;-2.50;99.90;;;;;;5011840;28;20469;-69
2023/01/19 04:20:44;;;;;;;14.90;9.50;;;-2.50;99.90;;;;;;5009571;28;21809;-70
2023/01/19 04:23:10;;;;;;;15.10;9.20;;;-2.50;99.90;;;;;;5009353;28;20191;-70
2023/01/19 04:25:35;;;;;;;17.03;10.97;;;-2.50;99.90;;;;;;5011851;28;20186;-69
2023/01/19 04:28:01;;;;;;;12.40;10.07;;;-2.50;99.90;;;;;;5009615;28;20206;-70
2023/01/19 04:30:26;;;;;;;13.93;9.97;;;-2.50;99.90;;;;;;5010561;28;20551;-70
2023/01/19 04:32:54;;;;;;;15.73;10.83;;;-2.50;99.90;;;;;;5008152;28;20759;-69
2023/01/19 04:35:20;;;;;;;13.30;10.47;;;-2.50;99.90;;;;;;5010695;28;20573;-69
2023/01/19 04:37:46;;;;;;;14.40;11.50;;;-2.50;99.90;;;;;;5008852;28;20461;-70
2023/01/19 04:40:12;;;;;;;19.50;12.80;;;-2.50;99.90;;;;;;5009315;28;20434;-70
2023/01/19 04:42:37;;;;;;;15.63;11.53;;;-2.50;99.90;;;;;;5009145;28;20210;-69
2023/01/19 04:45:03;;;;;;;16.00;11.37;;;-2.50;99.90;;;;;;5009261;28;20551;-69
2023/01/19 04:47:29;;;;;;;15.73;11.40;;;-2.50;99.90;;;;;;5009443;28;20295;-69
2023/01/19 04:49:54;;;;;;;17.90;11.90;;;-2.50;99.90;;;;;;5008803;28;20653;-69
2023/01/19 04:52:19;;;;;;;17.53;11.20;;;-2.50;99.90;;;;;;5009283;28;20381;-70
2023/01/19 04:54:45;;;;;;;18.03;12.67;;;-2.50;99.90;;;;;;5009471;28;20603;-69
2023/01/19 04:57:11;;;;;;;15.20;10.63;;;-2.50;99.90;;;;;;5009545;28;20195;-69
2023/01/19 04:59:36;;;;;;;16.40;12.03;;;-2.50;99.90;;;;;;5009998;28;20178;-69
2023/01/19 05:02:01;;;;;;;17.90;11.90;;;-2.50;99.90;;;;;;5008527;28;20241;-69
2023/01/19 05:04:27;;;;;;;13.27;10.63;;;-2.50;99.90;;;;;;5009217;28;20580;-69
2023/01/19 05:06:53;;;;;;;15.43;11.40;;;-2.50;99.90;;;;;;5009311;28;20182;-69
2023/01/19 05:09:18;;;;;;;11.77;9.50;;;-2.50;99.90;;;;;;5009910;28;20182;-69
2023/01/19 05:11:44;;;;;;;14.93;12.30;;;-2.60;99.90;;;;;;5010532;28;20228;-69
2023/01/19 05:14:10;;;;;;;14.07;10.47;;;-2.50;99.90;;;;;;5018377;28;20214;-69
2023/01/19 05:16:35;;;;;;;13.97;9.77;;;-2.50;99.90;;;;;;5008034;28;20215;-69
2023/01/19 05:19:01;;;;;;;14.07;11.33;;;-2.50;99.90;;;;;;5009340;28;20497;-69
2023/01/19 05:21:27;;;;;;;16.23;10.93;;;-2.50;99.90;;;;;;4990319;28;20644;-71
2023/01/19 05:23:52;;;;;;;21.13;11.47;;;-2.60;99.90;;;;;;5008842;28;20561;-70
2023/01/19 05:26:18;;;;;;;16.57;10.10;;;-2.60;99.90;;;;;;5008828;28;20179;-69
2023/01/19 05:28:43;;;;;;;14.50;10.87;;;-2.60;99.90;;;;;;5009304;28;20289;-70
2023/01/19 05:31:09;;;;;;;13.90;11.30;;;-2.60;99.90;;;;;;5009734;28;20243;-70
2023/01/19 05:33:34;;;;;;;18.70;10.93;;;-2.60;99.90;;;;;;5010357;28;20695;-70
2023/01/19 05:36:00;;;;;;;12.50;10.70;;;-2.60;99.90;;;;;;5009851;28;20189;-70
2023/01/19 05:38:26;;;;;;;13.60;10.60;;;-2.60;99.90;;;;;;5006923;28;20191;-69
2023/01/19 05:40:57;;;;;;;15.63;10.80;;;-2.60;99.90;;;;;;5017566;28;20572;-70
2023/01/19 05:43:24;;;;;;;18.93;11.07;;;-2.70;99.90;;;;;;5009236;28;20186;-70
2023/01/19 05:45:49;;;;;;;17.17;9.27;;;-2.70;99.90;;;;;;5008697;28;20441;-70
2023/01/19 05:48:15;;;;;;;11.67;10.23;;;-2.70;99.90;;;;;;5010429;28;20917;-70
2023/01/19 05:50:41;;;;;;;16.83;10.60;;;-2.70;99.90;;;;;;5015821;28;20783;-71
2023/01/19 05:53:06;;;;;;;16.70;10.60;;;-2.70;99.90;;;;;;5012348;28;20210;-70
2023/01/19 05:55:32;;;;;;;12.80;9.53;;;-2.70;99.90;;;;;;5021498;28;20217;-70
2023/01/19 05:57:57;;;;;;;15.13;10.60;;;-2.60;99.90;;;;;;5017824;28;20219;-71
2023/01/19 06:00:24;;;;;;;16.03;10.73;;;-2.60;99.90;;;;;;5016876;28;20240;-71
2023/01/19 06:02:50;;;;;;;13.70;11.13;;;-2.60;99.90;;;;;;5014066;28;20183;-71
2023/01/19 06:05:16;;;;;;;20.73;11.43;;;-2.60;99.90;;;;;;5013396;28;20438;-71
2023/01/19 06:07:41;;;;;;;14.70;10.93;;;-2.60;99.90;;;;;;5015782;28;20248;-68
2023/01/19 06:10:08;;;;;;;20.73;11.40;;;-2.60;99.90;;;;;;5018970;28;20441;-69
2023/01/19 06:12:33;;;;;;;14.33;10.60;;;-2.60;99.90;;;;;;5017787;28;20198;-69
2023/01/19 06:14:59;;;;;;;13.93;10.90;;;-2.60;99.90;;;;;;5012498;28;20441;-71
2023/01/19 06:17:24;;;;;;;18.03;12.23;;;-2.60;99.90;;;;;;5015732;28;20555;-70
2023/01/19 06:19:50;;;;;;;13.93;10.53;;;-2.60;99.90;;;;;;5010304;28;20263;-70
2023/01/19 06:22:16;;;;;;;17.63;11.60;;;-2.60;99.90;;;;;;5017212;28;20186;-71
2023/01/19 06:24:41;;;;;;;19.40;11.00;;;-2.60;99.90;;;;;;5015414;28;20187;-70
2023/01/19 06:27:07;;;;;;;15.37;12.07;;;-2.60;99.90;;;;;;5012143;28;20755;-70
2023/01/19 06:29:32;;;;;;;15.50;10.33;;;-2.60;99.90;;;;;;5009303;28;20179;-71
2023/01/19 06:31:58;;;;;;;16.73;11.67;;;-2.60;99.90;;;;;;5014136;28;20186;-70
2023/01/19 06:34:27;;;;;;;15.47;10.67;;;-2.60;99.90;;;;;;5014476;28;20179;-70
2023/01/19 06:36:54;;;;;;;19.43;11.70;;;-2.60;99.90;;;;;;5008607;28;20645;-71
2023/01/19 06:39:20;;;;;;;16.60;10.70;;;-2.50;99.90;;;;;;5008765;28;20461;-70
2023/01/19 06:41:45;;;;;;;17.50;11.40;;;-2.50;99.90;;;;;;5008876;28;20488;-70
2023/01/19 06:44:11;;;;;;;12.47;9.70;;;-2.50;99.90;;;;;;5008534;28;20187;-70
2023/01/19 06:46:36;;;;;;;16.50;12.40;;;-2.50;99.90;;;;;;5004969;28;20183;-69
2023/01/19 06:49:02;;;;;;;24.47;14.50;;;-2.50;99.90;;;;;;5008934;28;20256;-70
2023/01/19 06:51:27;;;;;;;16.73;10.67;;;-2.40;99.90;;;;;;5013009;28;20179;-70
2023/01/19 06:53:53;;;;;;;21.50;11.77;;;-2.40;99.90;;;;;;5006898;28;20210;-70
2023/01/19 06:56:18;;;;;;;18.13;10.73;;;-2.40;99.90;;;;;;5008380;28;20660;-71
2023/01/19 06:58:46;;;;;;;14.23;10.40;;;-2.30;99.90;;;;;;5008305;28;20324;-70
2023/01/19 07:01:11;;;;;;;16.90;9.30;;;-2.30;99.90;;;;;;5012045;28;20194;-70
2023/01/19 07:03:37;;;;;;;16.13;10.00;;;-2.30;99.90;;;;;;5008929;28;20429;-70
2023/01/19 07:06:05;;;;;;;13.10;8.60;;;-2.40;99.90;;;;;;5006659;28;20644;-70
2023/01/19 07:08:31;;;;;;;16.63;10.40;;;-2.30;99.90;;;;;;5011160;28;20280;-70
2023/01/19 07:11:01;;;;;;;17.07;10.73;;;-2.40;99.90;;;;;;5010552;28;20437;-70
2023/01/19 07:13:27;;;;;;;18.47;8.87;;;-2.30;99.90;;;;;;5005278;28;21053;-70
2023/01/19 07:15:52;;;;;;;13.00;9.23;;;-2.30;99.90;;;;;;4979375;28;20468;-70
2023/01/19 07:18:18;;;;;;;13.33;9.27;;;-2.30;99.90;;;;;;4995495;28;20548;-71
2023/01/19 07:20:47;;;;;;;13.40;9.00;;;-2.20;99.90;;;;;;5014220;28;20203;-70
2023/01/19 07:23:14;;;;;;;13.00;8.73;;;-2.20;99.90;;;;;;5010892;28;20453;-71
2023/01/19 07:25:40;;;;;;;11.13;8.13;;;-2.10;99.90;;;;;;5005926;28;20476;-71
2023/01/19 07:28:05;;;;;;;10.27;8.10;;;-2.10;99.90;;;;;;5010609;28;20492;-70
2023/01/19 07:30:31;;;;;;;12.30;8.10;;;-2.10;99.90;;;;;;5010903;28;20264;-70
2023/01/19 07:32:57;;;;;;;9.70;8.70;;;-2.10;99.90;;;;;;5011090;28;20211;-71
2023/01/19 07:35:23;;;;;;;13.40;8.93;;;-2.10;99.90;;;;;;5011405;28;20193;-71
2023/01/19 07:37:49;;;;;;;14.80;7.97;;;-2.10;99.90;;;;;;5011461;28;20984;-70
2023/01/19 07:40:14;;;;;;;10.20;8.50;;;-2.10;99.90;;;;;;5004388;28;20434;-70
2023/01/19 07:42:46;;;;;;;10.27;6.23;;;-2.10;99.90;;;;;;5012841;28;20198;-69
2023/01/19 07:45:11;;;;;;;10.57;7.87;;;-2.10;99.90;;;;;;5006594;28;20598;-69
2023/01/19 07:47:37;;;;;;;18.03;8.07;;;-2.00;99.90;;;;;;5008711;28;20453;-69
2023/01/19 07:50:02;;;;;;;10.93;8.13;;;-2.00;99.90;;;;;;5007968;28;20238;-69
2023/01/19 07:52:28;;;;;;;13.17;8.33;;;-2.00;99.90;;;;;;5014817;28;20776;-70
2023/01/19 07:54:54;;;;;;;10.03;7.17;;;-1.80;99.90;;;;;;5006757;28;20197;-69
2023/01/19 07:57:19;;;;;;;12.70;7.87;;;-1.30;99.90;;;;;;5018414;28;20664;-68
2023/01/19 07:59:45;;;;;;;8.70;7.70;;;-0.60;99.90;;;;;;5011801;28;20233;-69
2023/01/19 08:02:10;;;;;;;8.53;6.20;;;0.10;99.90;;;;;;5010064;28;20204;-70
2023/01/19 08:04:35;;;;;;;10.10;7.30;;;0.50;99.90;;;;;;5010654;28;20175;-70
2023/01/19 08:07:02;;;;;;;8.27;6.83;;;0.80;99.90;;;;;;5011200;28;20640;-70
2023/01/19 08:09:28;;;;;;;10.13;6.77;;;1.30;99.90;;;;;;4989939;28;20665;-70
2023/01/19 08:11:53;;;;;;;9.70;7.70;;;1.70;99.90;;;;;;5011268;28;20532;-70
2023/01/19 08:14:19;;;;;;;9.70;7.43;;;1.50;99.90;;;;;;5006338;28;20234;-69
2023/01/19 08:16:44;;;;;;;11.17;7.63;;;1.40;99.90;;;;;;5008382;28;20297;-70
2023/01/19 08:19:10;;;;;;;9.20;6.10;;;1.60;99.90;;;;;;5013701;28;20731;-70
2023/01/19 08:21:37;;;;;;;6.83;5.30;;;1.80;99.90;;;;;;5014354;28;20676;-70
2023/01/19 08:24:03;;;;;;;7.60;6.00;;;1.80;99.90;;;;;;5008065;28;20561;-70
2023/01/19 08:26:34;;;;;;;7.43;6.37;;;1.50;99.90;;;;;;5010347;28;20444;-68
2023/01/19 08:29:02;;;;;;;8.97;7.10;;;1.60;99.90;;;;;;5008640;28;20195;-68
2023/01/19 08:31:27;;;;;;;9.73;5.90;;;2.00;99.90;;;;;;5014962;28;20438;-68
2023/01/19 08:33:53;;;;;;;7.53;5.73;;;2.70;99.90;;;;;;5008496;28;20563;-67
2023/01/19 08:36:20;;;;;;;7.27;5.90;;;2.30;99.90;;;;;;5010372;28;20191;-68
2023/01/19 08:38:46;;;;;;;9.17;6.30;;;2.50;99.90;;;;;;5008319;28;20202;-69
2023/01/19 08:41:12;;;;;;;8.10;6.00;;;2.90;99.90;;;;;;5014006;28;20445;-68
2023/01/19 08:43:37;;;;;;;7.63;6.50;;;3.80;99.90;;;;;;5005985;28;20265;-68
2023/01/19 08:46:04;;;;;;;11.03;6.70;;;4.20;99.90;;;;;;4989758;28;20484;-69
2023/01/19 08:48:29;;;;;;;7.60;6.60;;;4.30;99.90;;;;;;5006087;28;21013;-69
2023/01/19 08:50:55;;;;;;;6.97;6.13;;;4.50;99.90;;;;;;5006864;28;20576;-68
2023/01/19 08:53:22;;;;;;;6.63;6.03;;;4.60;99.90;;;;;;5006226;28;20207;-68
2023/01/19 08:55:48;;;;;;;12.10;7.50;;;4.90;99.90;;;;;;5007416;28;20226;-69
2023/01/19 08:58:13;;;;;;;5.80;5.30;;;5.20;99.90;;;;;;5009681;28;20458;-69
2023/01/19 09:00:40;;;;;;;8.00;6.87;;;5.20;99.90;;;;;;5010787;28;20460;-69
2023/01/19 09:03:09;;;;;;;6.33;5.70;;;6.00;99.90;;;;;;5007138;28;20183;-68
2023/01/19 09:05:37;;;;;;;5.20;4.70;;;5.90;99.90;;;;;;5013859;28;21214;-68
2023/01/19 09:08:12;;;;;;;5.67;5.07;;;4.90;99.90;;;;;;5008470;28;20540;-69
2023/01/19 09:10:38;;;;;;;9.47;6.30;;;3.90;99.90;;;;;;5015679;28;20433;-69
2023/01/19 09:13:07;;;;;;;6.70;5.90;;;2.90;99.90;;;;;;5008857;28;20466;-69
2023/01/19 09:15:34;;;;;;;7.30;5.97;;;2.30;99.90;;;;;;5009719;28;20444;-68
2023/01/19 09:18:01;;;;;;;7.33;6.67;;;2.40;99.90;;;;;;5018190;28;20838;-68
2023/01/19 09:20:29;;;;;;;9.63;7.50;;;3.20;99.90;;;;;;5020916;28;20425;-68
2023/01/19 09:22:56;;;;;;;7.00;5.47;;;4.00;99.90;;;;;;5011311;28;20446;-69
2023/01/19 09:25:22;;;;;;;5.77;5.27;;;5.20;99.90;;;;;;5004862;28;20468;-68
2023/01/19 09:27:47;;;;;;;8.10;5.63;;;5.70;99.90;;;;;;5011122;28;20488;-68
2023/01/19 09:30:13;;;;;;;8.17;6.17;;;5.60;99.90;;;;;;5011028;28;20617;-69
2023/01/19 09:32:38;;;;;;;6.97;6.27;;;5.30;99.90;;;;;;4991016;28;20253;-69
2023/01/19 09:35:04;;;;;;;6.30;5.10;;;5.30;99.90;;;;;;5008546;28;20965;-68
2023/01/19 09:37:30;;;;;;;7.27;6.10;;;5.70;99.90;;;;;;5007808;28;20226;-68
2023/01/19 09:39:55;;;;;;;7.40;6.67;;;5.60;99.90;;;;;;5005403;28;20436;-69
2023/01/19 09:42:37;;;;;;;7.50;6.07;;;4.90;99.90;;;;;;5009428;28;20249;-70
2023/01/19 09:45:09;;;;;;;6.53;5.83;;;4.20;99.90;;;;;;5000309;28;20187;-68
2023/01/19 09:47:37;;;;;;;6.57;5.50;;;3.60;99.90;;;;;;5008727;28;22405;-69
2023/01/19 09:50:15;;;;;;;6.63;5.60;;;3.20;99.90;;;;;;5007671;28;20449;-69
2023/01/19 09:52:46;;;;;;;6.90;5.53;;;3.80;99.90;;;;;;5007740;28;20629;-69
2023/01/19 09:55:30;;;;;;;6.40;5.50;;;5.10;99.90;;;;;;5008267;28;20453;-68
2023/01/19 09:57:56;;;;;;;5.57;5.03;;;5.50;99.90;;;;;;5010102;28;20925;-69
2023/01/19 10:00:23;;;;;;;7.07;5.70;;;5.80;99.90;;;;;;5004299;28;20516;-69
2023/01/19 10:02:56;;;;;;;6.17;5.67;;;5.40;99.90;;;;;;5010859;28;20202;-70
2023/01/19 10:05:41;;;;;;;10.03;4.93;;;4.80;99.90;;;;;;5006502;28;20463;-69
2023/01/19 10:08:18;;;;;;;10.23;6.93;;;4.20;99.90;;;;;;5011411;28;20452;-69
2023/01/19 10:10:55;;;;;;;7.00;6.30;;;3.80;99.90;;;;;;5010312;28;20824;-69
2023/01/19 10:13:31;;;;;;;7.83;7.03;;;3.20;99.90;;;;;;5011226;28;20457;-69
2023/01/19 10:16:24;;;;;;;7.20;5.60;;;2.60;99.90;;;;;;5005809;28;20780;-68
2023/01/19 10:18:54;;;;;;;8.67;5.33;;;2.40;99.90;;;;;;5004301;28;20472;-67
2023/01/19 10:21:30;;;;;;;8.40;6.20;;;1.90;99.90;;;;;;5007734;28;20437;-67
2023/01/19 10:24:09;;;;;;;8.27;6.30;;;1.80;99.90;;;;;;5003144;28;20441;-68
2023/01/19 10:26:46;;;;;;;9.10;6.87;;;1.80;99.90;;;;;;5009955;28;20448;-68
2023/01/19 10:29:37;;;;;;;9.40;7.13;;;1.70;99.90;;;;;;5009971;28;20454;-69
2023/01/19 10:32:11;;;;;;;8.20;7.00;;;1.70;99.90;;;;;;5010262;28;20523;-70
2023/01/19 10:34:37;;;;;;;6.80;5.90;;;1.70;99.90;;;;;;5006129;28;20439;-70
2023/01/19 10:37:40;;;;;;;6.83;5.80;;;1.60;99.90;;;;;;5002803;28;20426;-71
2023/01/19 10:40:18;;;;;;;8.90;7.70;;;1.60;99.90;;;;;;4930189;29;20444;-69
2023/01/19 10:42:44;;;;;;;7.50;6.67;;;1.70;99.90;;;;;;4999409;28;20494;-70
2023/01/19 10:45:18;;;;;;;12.87;9.53;;;1.60;99.90;;;;;;5010032;28;20429;-70
2023/01/19 10:47:46;;;;;;;9.60;6.50;;;1.50;99.90;;;;;;5013461;28;20198;-70
2023/01/19 10:50:32;;;;;;;7.37;6.57;;;1.60;99.90;;;;;;5012977;28;20456;-70
2023/01/19 10:53:04;;;;;;;7.53;5.77;;;1.70;99.90;;;;;;5012499;28;20829;-68
2023/01/19 10:55:33;;;;;;;7.67;5.93;;;1.80;99.90;;;;;;5013532;28;20437;-69
2023/01/19 10:57:59;;;;;;;12.30;6.03;;;1.80;99.90;;;;;;5012467;28;20986;-70
2023/01/19 11:00:36;;;;;;;14.10;6.87;;;1.80;99.90;;;;;;5009248;28;20437;-69
2023/01/19 11:03:23;;;;;;;7.10;5.73;;;1.80;99.90;;;;;;5009810;28;20444;-67
2023/01/19 11:05:49;;;;;;;7.60;6.00;;;1.80;99.90;;;;;;5007263;28;20991;-68
2023/01/19 11:08:27;;;;;;;8.23;6.70;;;1.90;99.90;;;;;;5014841;28;20460;-71
2023/01/19 11:11:01;;;;;;;9.83;7.20;;;2.20;99.90;;;;;;5011137;28;20441;-67
2023/01/19 11:13:27;;;;;;;6.10;5.40;;;2.50;99.90;;;;;;5012207;28;20465;-68
2023/01/19 11:15:56;;;;;;;9.07;6.60;;;2.90;99.90;;;;;;5007999;28;20491;-68
2023/01/19 11:18:30;;;;;;;9.30;7.63;;;2.90;99.90;;;;;;4997204;28;20229;-68
2023/01/19 11:21:01;;;;;;;5.93;5.33;;;3.20;99.90;;;;;;5012025;28;20444;-67
2023/01/19 11:23:49;;;;;;;16.60;9.90;;;4.50;99.90;;;;;;5013674;28;20997;-68
2023/01/19 11:26:39;;;;;;;12.00;8.43;;;5.50;99.90;;;;;;5012795;28;20528;-67
2023/01/19 11:29:14;;;;;;;6.63;5.57;;;6.20;99.90;;;;;;4997365;28;20453;-68
2023/01/19 11:31:39;;;;;;;6.53;5.50;;;6.40;99.90;;;;;;5013580;28;20455;-67
2023/01/19 11:34:22;;;;;;;6.70;6.10;;;6.50;99.90;;;;;;5011450;28;20465;-68
2023/01/19 11:37:17;;;;;;;7.90;5.37;;;6.60;99.90;;;;;;5012362;28;20210;-68
2023/01/19 11:39:48;;;;;;;7.80;6.60;;;5.80;99.90;;;;;;4983469;28;20437;-67
2023/01/19 11:42:15;;;;;;;5.87;5.03;;;5.40;99.90;;;;;;4998212;28;20431;-67
2023/01/19 11:44:57;;;;;;;12.03;7.23;;;4.80;99.90;;;;;;5010713;28;20444;-67
2023/01/19 11:47:34;;;;;;;6.20;5.60;;;4.10;99.90;;;;;;5011771;28;20549;-68
2023/01/19 11:50:21;;;;;;;6.57;5.13;;;4.00;99.90;;;;;;5011913;28;20463;-68
2023/01/19 11:53:06;;;;;;;5.60;4.87;;;4.50;99.90;;;;;;5008416;28;20476;-71
2023/01/19 11:55:49;;;;;;;6.03;5.50;;;4.60;99.90;;;;;;5006133;28;21085;-71
2023/01/19 11:58:16;;;;;;;6.83;5.27;;;4.90;99.90;;;;;;5005464;28;20511;-71
2023/01/19 12:00:48;;;;;;;5.57;4.97;;;5.00;99.90;;;;;;5008044;28;20897;-71
2023/01/19 12:04:05;;;;;;;5.33;4.83;;;4.70;99.90;;;;;;5015018;28;20573;-70
2023/01/19 12:06:38;;;;;;;7.17;5.97;;;4.40;99.90;;;;;;4951349;28;20540;-71
2023/01/19 12:09:17;;;;;;;5.27;4.40;;;3.90;99.90;;;;;;5008208;28;20888;-70
2023/01/19 12:11:47;;;;;;;5.70;4.70;;;3.70;99.90;;;;;;5011929;28;20835;-71
2023/01/19 12:14:41;;;;;;;5.60;5.00;;;3.40;99.90;;;;;;5004924;28;20553;-71
2023/01/19 12:17:12;;;;;;;8.63;5.20;;;3.30;99.90;;;;;;5014048;28;20602;-71
2023/01/19 12:19:53;;;;;;;6.40;5.90;;;3.10;99.90;;;;;;5007319;28;20957;-71
2023/01/19 12:22:19;;;;;;;8.10;5.60;;;3.10;99.90;;;;;;5016783;28;20441;-71
2023/01/19 12:25:01;;;;;;;7.77;6.13;;;3.00;99.90;;;;;;5005996;28;20812;-71
2023/01/19 12:27:39;;;;;;;7.27;5.43;;;2.90;99.90;;;;;;5011700;28;20826;-70
2023/01/19 12:30:25;;;;;;;7.67;5.63;;;2.90;99.90;;;;;;5011669;28;20429;-71
2023/01/19 12:32:51;;;;;;;11.33;6.40;;;2.80;99.90;;;;;;5011854;28;20488;-72
2023/01/19 12:35:55;;;;;;;6.20;5.60;;;2.80;99.90;;;;;;5009838;28;20423;-71
2023/01/19 12:38:40;;;;;;;6.97;4.90;;;2.80;99.90;;;;;;5010944;28;20285;-71
2023/01/19 12:41:33;;;;;;;5.50;5.00;;;2.70;99.90;;;;;;5012152;28;20507;-71
2023/01/19 12:44:10;;;;;;;5.73;5.23;;;2.50;99.90;;;;;;5009364;28;21799;-71
2023/01/19 12:46:44;;;;;;;7.53;4.93;;;2.40;99.90;;;;;;5011838;28;20491;-71
2023/01/19 12:49:26;;;;;;;6.30;5.67;;;2.40;99.90;;;;;;5010917;28;20547;-71
2023/01/19 12:52:29;;;;;;;5.63;5.13;;;2.40;99.90;;;;;;5013910;28;20439;-71
2023/01/19 12:55:05;;;;;;;5.97;5.37;;;2.40;99.90;;;;;;4984160;28;20477;-70
2023/01/19 12:57:40;;;;;;;5.40;4.83;;;2.30;99.90;;;;;;5016663;28;20465;-71
2023/01/19 13:00:21;;;;;;;5.90;5.30;;;2.30;99.90;;;;;;5011304;28;20788;-71
2023/01/19 13:02:57;;;;;;;10.20;5.93;;;2.40;99.90;;;;;;5008211;28;20942;-70
2023/01/19 13:05:30;;;;;;;7.40;5.87;;;2.40;99.90;;;;;;5007209;28;20503;-71